KFRG/FRG METAR and TAF weather

Enter ICAO airport designator
Station Type Date Time Source
KFRG METAR 2022/06/25 22:53 UTC NOAA

KFRG 252253Z AUTO 23009KT 10SM CLR 27/17 A3009 RMK AO2 SLP190 T02720167


Station Type Date Time Source
KFRG Decoded METAR 2022/06/25 22:53 UTC NOAA

FARMINGDALE REPUBLIC AIRPORT , NY, United States (KFRG) 40-44N 073-25W 21M
Jun 25, 2022 - 06:53 PM EDT / 2022.06.25 2253 UTC
Wind: from the SW (230 degrees) at 10 MPH (9 KT):0
Visibility: 10 mile(s):0
Sky conditions: clear
Temperature: 81.0 F (27.2 C)
Dew Point: 62.1 F (16.7 C)
Relative Humidity: 52%
Pressure (altimeter): 30.09 in. Hg (1018 hPa)
ob: KFRG 252253Z AUTO 23009KT 10SM CLR 27/17 A3009 RMK AO2 SLP190 T02720167
cycle: 23

Station Type Date Time Source
KFRG TAF UTC NOAA

Error!

Example: see airport list